Time;durP1;ratioP1;P1;durP2;ratioP2;P2;SDS_P1;SDS_P2;PMS_P1;PMS_P2;Temp;Humidity;BMP_temperature;BMP_pressure;BME280_temperature;BME280_humidity;BME280_pressure;Samples;Min_cycle;Max_cycle;Signal;HPM_P1;HPM_P2
2022/01/29 00:00:16;;;;;;;;;;;;;;;12.92;64.74;102892.41;5116324;28;19938;-83
2022/01/29 00:02:41;;;;;;;;;;;;;;;13.22;63.40;102884.38;5116022;28;20369;-83
2022/01/29 00:05:07;;;;;;;;;;;;;;;11.91;67.65;102889.19;5115775;28;19916;-84
2022/01/29 00:07:33;;;;;;;;;;;;;;;12.19;67.90;102890.44;5116697;28;20369;-83
2022/01/29 00:10:03;;;;;;;;;;;;;;;12.32;65.62;102882.03;5116929;28;20040;-83
2022/01/29 00:12:28;;;;;;;;;;;;;;;13.11;64.41;102873.78;5116833;28;19945;-83
2022/01/29 00:14:53;;;;;;;;;;;;;;;12.86;65.21;102872.63;5115731;28;19916;-84
2022/01/29 00:17:19;;;;;;;;;;;;;;;13.07;63.14;102865.75;5115610;28;19948;-85
2022/01/29 00:19:44;;;;;;;;;;;;;;;12.84;63.49;102866.34;5118052;28;19923;-85
2022/01/29 00:22:09;;;;;;;;;;;;;;;13.41;61.82;102854.91;5117845;28;19920;-84
2022/01/29 00:24:34;;;;;;;;;;;;;;;13.43;61.17;102850.31;5117904;28;19919;-84
2022/01/29 00:27:02;;;;;;;;;;;;;;;12.62;66.05;102853.31;5118699;28;19967;-84
2022/01/29 00:29:28;;;;;;;;;;;;;;;13.08;64.47;102846.69;5117517;28;19958;-84
2022/01/29 00:31:53;;;;;;;;;;;;;;;13.63;62.37;102843.44;5118570;28;19915;-83
2022/01/29 00:34:18;;;;;;;;;;;;;;;13.15;63.54;102847.44;5116917;28;19920;-83
2022/01/29 00:36:44;;;;;;;;;;;;;;;12.45;66.23;102850.97;5120720;28;19923;-85
2022/01/29 00:39:09;;;;;;;;;;;;;;;13.23;62.66;102844.50;5121537;28;19916;-85
2022/01/29 00:41:34;;;;;;;;;;;;;;;13.44;62.49;102835.78;5118904;28;19927;-84
2022/01/29 00:44:00;;;;;;;;;;;;;;;13.37;62.53;102834.19;5120364;28;19920;-83
2022/01/29 00:46:25;;;;;;;;;;;;;;;13.12;62.39;102833.94;5119586;28;19951;-82
2022/01/29 00:48:50;;;;;;;;;;;;;;;12.64;64.91;102845.13;5121376;28;19927;-84
2022/01/29 00:51:15;;;;;;;;;;;;;;;13.15;64.65;102844.72;5120204;28;19976;-84
2022/01/29 00:53:40;;;;;;;;;;;;;;;12.47;68.66;102835.53;5120416;28;19940;-84
2022/01/29 00:56:07;;;;;;;;;;;;;;;13.15;65.53;102832.94;5119432;28;19959;-84
2022/01/29 00:58:32;;;;;;;;;;;;;;;14.11;62.50;102818.41;5120557;28;19915;-84
2022/01/29 01:00:58;;;;;;;;;;;;;;;12.72;67.61;102830.38;5119849;28;19923;-85
2022/01/29 01:03:24;;;;;;;;;;;;;;;12.50;68.71;102826.41;5121040;28;19915;-83
2022/01/29 01:05:49;;;;;;;;;;;;;;;12.71;70.70;102823.19;5113228;28;19932;-83
2022/01/29 01:08:14;;;;;;;;;;;;;;;12.87;69.86;102814.66;5113139;28;19951;-84
2022/01/29 01:10:41;;;;;;;;;;;;;;;13.31;67.82;102818.00;5103065;28;19926;-84
2022/01/29 01:13:06;;;;;;;;;;;;;;;13.12;68.22;102810.34;5099539;28;19916;-84
2022/01/29 01:15:31;;;;;;;;;;;;;;;12.12;72.74;102807.38;5099756;28;19968;-85
2022/01/29 01:17:56;;;;;;;;;;;;;;;13.39;68.05;102805.16;5101043;28;19923;-84
2022/01/29 01:20:22;;;;;;;;;;;;;;;13.15;68.74;102798.53;5099297;28;20400;-84
2022/01/29 01:22:47;;;;;;;;;;;;;;;12.61;69.80;102797.19;5099736;28;20381;-84
2022/01/29 01:25:12;;;;;;;;;;;;;;;11.89;72.21;102805.16;5099627;28;19959;-84
2022/01/29 01:27:37;;;;;;;;;;;;;;;12.08;73.28;102788.50;5100666;28;19912;-83
2022/01/29 01:30:04;;;;;;;;;;;;;;;13.25;70.39;102774.69;5100344;28;19923;-83
2022/01/29 01:32:29;;;;;;;;;;;;;;;13.23;69.37;102774.72;5099061;28;19916;-84
2022/01/29 01:34:57;;;;;;;;;;;;;;;11.87;73.17;102785.31;5098533;28;19922;-84
2022/01/29 01:37:35;;;;;;;;;;;;;;;12.44;74.22;102794.00;5098840;28;19916;-84
2022/01/29 01:40:00;;;;;;;;;;;;;;;13.14;70.03;102787.69;5099720;28;20319;-83
2022/01/29 01:42:26;;;;;;;;;;;;;;;12.31;72.92;102787.97;5098654;28;20002;-83
2022/01/29 01:44:53;;;;;;;;;;;;;;;12.94;70.05;102790.00;5100293;28;19918;-83
2022/01/29 01:47:18;;;;;;;;;;;;;;;12.90;70.94;102779.25;5099967;28;19916;-84
2022/01/29 01:49:43;;;;;;;;;;;;;;;13.63;68.06;102776.34;5099111;28;19920;-84
2022/01/29 01:52:10;;;;;;;;;;;;;;;12.78;71.16;102777.75;5099812;28;19924;-83
2022/01/29 01:54:35;;;;;;;;;;;;;;;13.17;69.32;102774.03;5098714;28;19920;-83
2022/01/29 01:57:01;;;;;;;;;;;;;;;13.16;69.00;102769.50;5099837;28;19936;-85
2022/01/29 01:59:27;;;;;;;;;;;;;;;14.06;65.41;102763.25;5098412;28;19999;-84
2022/01/29 02:01:52;;;;;;;;;;;;;;;12.98;69.43;102763.63;5099475;28;19916;-83
2022/01/29 02:04:17;;;;;;;;;;;;;;;13.30;68.96;102768.19;5098467;28;20288;-84
2022/01/29 02:06:43;;;;;;;;;;;;;;;13.83;66.99;102755.81;5098800;28;19916;-84
2022/01/29 02:09:08;;;;;;;;;;;;;;;13.78;66.55;102755.03;5101076;28;19916;-84
2022/01/29 02:11:33;;;;;;;;;;;;;;;13.17;67.56;102761.31;5099261;28;20258;-84
2022/01/29 02:14:00;;;;;;;;;;;;;;;13.03;69.67;102747.19;5099114;28;19916;-84
2022/01/29 02:16:30;;;;;;;;;;;;;;;13.54;65.95;102740.38;5098673;28;19959;-84
2022/01/29 02:18:55;;;;;;;;;;;;;;;12.84;70.38;102741.41;5099912;28;19983;-84
2022/01/29 02:21:21;;;;;;;;;;;;;;;13.46;69.04;102738.75;5098103;28;19962;-84
2022/01/29 02:23:46;;;;;;;;;;;;;;;13.58;67.44;102739.34;5098401;28;19930;-84
2022/01/29 02:26:12;;;;;;;;;;;;;;;13.06;69.30;102731.72;5097998;28;19916;-84
2022/01/29 02:28:37;;;;;;;;;;;;;;;13.62;66.79;102722.88;5098270;28;19912;-84
2022/01/29 02:31:04;;;;;;;;;;;;;;;13.12;68.93;102728.84;5098079;28;19963;-83
2022/01/29 02:33:33;;;;;;;;;;;;;;;13.65;66.70;102713.75;5098399;28;19932;-84
2022/01/29 02:35:59;;;;;;;;;;;;;;;13.61;67.97;102710.22;5099647;28;20409;-84
2022/01/29 02:38:25;;;;;;;;;;;;;;;13.01;68.48;102711.91;5098195;28;19916;-85
2022/01/29 02:40:58;;;;;;;;;;;;;;;13.64;67.10;102698.34;5098110;28;20028;-84
2022/01/29 02:43:29;;;;;;;;;;;;;;;14.53;63.69;102700.00;5097817;28;19917;-85
2022/01/29 02:45:55;;;;;;;;;;;;;;;13.44;67.49;102691.69;5098289;28;20290;-83
2022/01/29 02:48:22;;;;;;;;;;;;;;;13.11;68.01;102699.00;5098125;28;19947;-84
2022/01/29 02:50:48;;;;;;;;;;;;;;;13.39;68.40;102685.53;5097733;28;19916;-84
2022/01/29 02:53:13;;;;;;;;;;;;;;;13.05;67.76;102677.44;5097760;28;19931;-84
2022/01/29 02:55:39;;;;;;;;;;;;;;;14.23;64.62;102672.00;5097985;28;20395;-84
2022/01/29 02:58:04;;;;;;;;;;;;;;;13.68;64.11;102667.41;5098289;28;19920;-84
2022/01/29 03:00:29;;;;;;;;;;;;;;;14.00;64.78;102665.47;5097453;28;19916;-84
2022/01/29 03:02:55;;;;;;;;;;;;;;;14.28;63.70;102667.28;5099163;28;19969;-84
2022/01/29 03:05:20;;;;;;;;;;;;;;;14.62;61.77;102668.88;5098132;28;19920;-84
2022/01/29 03:07:46;;;;;;;;;;;;;;;12.92;69.33;102671.44;5097690;28;19927;-84
2022/01/29 03:10:11;;;;;;;;;;;;;;;13.16;68.95;102668.97;5099459;28;19919;-84
2022/01/29 03:12:37;;;;;;;;;;;;;;;14.24;64.49;102660.16;5099243;28;20358;-84
2022/01/29 03:15:06;;;;;;;;;;;;;;;13.82;66.22;102662.41;5100022;28;20022;-84
2022/01/29 03:17:31;;;;;;;;;;;;;;;13.81;65.02;102648.84;5097883;28;19918;-85
2022/01/29 03:19:57;;;;;;;;;;;;;;;13.57;68.14;102645.09;5100401;28;19920;-85
2022/01/29 03:22:22;;;;;;;;;;;;;;;13.24;67.98;102647.88;5101916;28;19976;-84
2022/01/29 03:24:47;;;;;;;;;;;;;;;15.12;62.03;102638.84;5101733;28;19923;-83
2022/01/29 03:27:12;;;;;;;;;;;;;;;13.79;64.73;102643.47;5101810;28;19939;-84
2022/01/29 03:29:38;;;;;;;;;;;;;;;14.93;62.14;102635.03;5101796;28;19916;-85
2022/01/29 03:32:03;;;;;;;;;;;;;;;13.75;64.81;102636.38;5102112;28;20450;-85
2022/01/29 03:34:29;;;;;;;;;;;;;;;13.76;66.53;102637.25;5098093;28;20374;-85
2022/01/29 03:36:56;;;;;;;;;;;;;;;13.25;68.05;102631.50;5095201;28;20366;-84
2022/01/29 03:39:23;;;;;;;;;;;;;;;13.37;68.28;102630.28;5095251;28;19919;-84
2022/01/29 03:41:48;;;;;;;;;;;;;;;13.41;67.91;102631.09;5096631;28;19916;-85
2022/01/29 03:44:13;;;;;;;;;;;;;;;14.73;63.36;102623.03;5095162;28;19924;-84
2022/01/29 03:46:38;;;;;;;;;;;;;;;14.57;63.13;102619.97;5095141;28;19916;-85
2022/01/29 03:49:04;;;;;;;;;;;;;;;13.15;68.12;102624.59;5096222;28;19920;-85
2022/01/29 03:51:29;;;;;;;;;;;;;;;14.69;63.03;102621.41;5094750;28;19920;-85
2022/01/29 03:53:54;;;;;;;;;;;;;;;14.40;63.51;102626.00;5094961;28;19926;-85
2022/01/29 03:56:20;;;;;;;;;;;;;;;13.78;65.64;102619.94;5094892;28;19961;-85
2022/01/29 03:58:45;;;;;;;;;;;;;;;13.14;69.90;102613.78;5096233;28;19963;-85
2022/01/29 04:01:10;;;;;;;;;;;;;;;13.47;68.44;102604.59;5094665;28;19923;-84
2022/01/29 04:03:36;;;;;;;;;;;;;;;13.76;65.90;102610.03;5094778;28;20357;-84
2022/01/29 04:06:01;;;;;;;;;;;;;;;13.50;67.34;102602.72;5095932;28;19916;-84
2022/01/29 04:08:27;;;;;;;;;;;;;;;13.51;67.01;102605.38;5094866;28;20341;-84
2022/01/29 04:10:52;;;;;;;;;;;;;;;13.62;66.81;102602.34;5094612;28;19938;-84
2022/01/29 04:13:22;;;;;;;;;;;;;;;13.16;67.97;102603.72;5094566;28;19942;-84
2022/01/29 04:15:47;;;;;;;;;;;;;;;13.64;66.58;102604.06;5094505;28;20036;-84
2022/01/29 04:18:12;;;;;;;;;;;;;;;13.90;66.96;102606.88;5095873;28;19923;-84
2022/01/29 04:20:37;;;;;;;;;;;;;;;13.19;68.40;102606.34;5094357;28;20423;-84
2022/01/29 04:23:05;;;;;;;;;;;;;;;14.10;66.48;102604.38;5094518;28;19927;-84
2022/01/29 04:25:30;;;;;;;;;;;;;;;14.05;63.49;102594.56;5094309;28;19939;-85
2022/01/29 04:27:55;;;;;;;;;;;;;;;13.64;67.14;102597.72;5094322;28;20487;-84
2022/01/29 04:30:29;;;;;;;;;;;;;;;13.87;66.98;102590.63;5095207;28;20011;-85
2022/01/29 04:33:02;;;;;;;;;;;;;;;13.54;68.03;102569.03;5094361;28;19951;-84
2022/01/29 04:35:27;;;;;;;;;;;;;;;13.76;66.16;102578.28;5095440;28;20471;-84
2022/01/29 04:37:53;;;;;;;;;;;;;;;13.40;67.50;102575.81;5094102;28;19953;-83
2022/01/29 04:40:18;;;;;;;;;;;;;;;14.23;66.07;102571.28;5093937;28;19938;-85
2022/01/29 04:42:43;;;;;;;;;;;;;;;13.69;66.10;102575.81;5093896;28;19924;-85
2022/01/29 04:45:09;;;;;;;;;;;;;;;13.79;65.21;102566.41;5094053;28;20366;-85
2022/01/29 04:47:34;;;;;;;;;;;;;;;14.41;64.15;102559.72;5093828;28;19920;-85
2022/01/29 04:49:59;;;;;;;;;;;;;;;13.59;66.13;102559.81;5093672;28;19924;-85
2022/01/29 04:52:24;;;;;;;;;;;;;;;14.51;62.68;102554.84;5093613;28;19985;-85
2022/01/29 04:54:49;;;;;;;;;;;;;;;13.27;67.67;102563.50;5093533;28;20291;-84
2022/01/29 04:57:15;;;;;;;;;;;;;;;14.28;64.21;102558.38;5093902;28;19962;-85
2022/01/29 04:59:40;;;;;;;;;;;;;;;13.61;67.48;102557.03;5093645;28;20281;-84
2022/01/29 05:02:05;;;;;;;;;;;;;;;13.88;66.37;102560.66;5093729;28;19916;-85
2022/01/29 05:04:30;;;;;;;;;;;;;;;14.17;64.74;102558.75;5093528;28;20293;-85
2022/01/29 05:06:55;;;;;;;;;;;;;;;13.79;64.78;102556.41;5093408;28;20343;-83
2022/01/29 05:09:21;;;;;;;;;;;;;;;13.75;66.23;102548.41;5093109;28;19916;-85
2022/01/29 05:11:49;;;;;;;;;;;;;;;13.70;66.65;102564.88;5094557;28;19949;-84
2022/01/29 05:14:35;;;;;;;;;;;;;;;13.87;66.01;102567.03;5093310;28;20292;-84
2022/01/29 05:27:42;;;;;;;;;;;;;;;13.67;66.58;102556.84;5094820;28;19970;-85
2022/01/29 05:30:08;;;;;;;;;;;;;;;14.07;64.11;102557.28;5093246;28;19947;-84
2022/01/29 05:32:33;;;;;;;;;;;;;;;14.79;61.61;102551.97;5094423;28;20324;-84
2022/01/29 05:34:58;;;;;;;;;;;;;;;14.78;61.99;102558.41;5094219;28;20456;-84
2022/01/29 05:37:23;;;;;;;;;;;;;;;14.47;63.48;102556.75;5093171;28;19916;-85
2022/01/29 05:39:48;;;;;;;;;;;;;;;13.55;66.92;102565.41;5093166;28;19916;-85
2022/01/29 05:42:13;;;;;;;;;;;;;;;14.61;63.69;102555.41;5092344;28;19923;-84
2022/01/29 05:44:39;;;;;;;;;;;;;;;14.41;64.02;102557.00;5094402;28;20391;-84
2022/01/29 05:47:04;;;;;;;;;;;;;;;14.44;63.51;102559.59;5092735;28;20016;-85
2022/01/29 05:49:29;;;;;;;;;;;;;;;13.58;66.77;102555.31;5092652;28;19957;-85
2022/01/29 05:51:54;;;;;;;;;;;;;;;14.67;63.82;102557.91;5093539;28;20289;-85
2022/01/29 05:54:19;;;;;;;;;;;;;;;14.81;61.66;102554.66;5092466;28;19920;-83
2022/01/29 05:56:45;;;;;;;;;;;;;;;14.48;64.33;102552.22;5092649;28;19916;-83
2022/01/29 05:59:10;;;;;;;;;;;;;;;14.69;63.61;102547.84;5092806;28;19920;-86
2022/01/29 06:01:35;;;;;;;;;;;;;;;14.31;64.49;102548.28;5092493;28;19916;-82
2022/01/29 06:04:00;;;;;;;;;;;;;;;14.52;63.80;102540.25;5092608;28;20392;-85
2022/01/29 06:06:26;;;;;;;;;;;;;;;13.42;66.96;102540.44;5092746;28;19926;-88
2022/01/29 06:08:51;;;;;;;;;;;;;;;14.09;65.41;102531.81;5092807;28;20011;-85
2022/01/29 06:11:16;;;;;;;;;;;;;;;14.08;65.13;102523.72;5092629;28;19916;-85
2022/01/29 06:13:42;;;;;;;;;;;;;;;14.47;65.04;102531.38;5092706;28;20050;-84
2022/01/29 06:16:08;;;;;;;;;;;;;;;13.96;66.08;102527.75;5093218;28;19965;-85
2022/01/29 06:18:34;;;;;;;;;;;;;;;15.23;60.59;102522.09;5094569;28;20049;-84
2022/01/29 06:21:04;;;;;;;;;;;;;;;14.87;61.85;102506.25;5093646;28;20333;-85
2022/01/29 06:23:31;;;;;;;;;;;;;;;14.33;63.48;102513.72;5097133;28;19920;-84
2022/01/29 06:25:57;;;;;;;;;;;;;;;14.46;63.63;102508.72;5096867;28;19916;-83
2022/01/29 06:28:23;;;;;;;;;;;;;;;14.11;64.55;102510.88;5097226;28;19916;-84
2022/01/29 06:30:50;;;;;;;;;;;;;;;14.42;64.31;102508.84;5095212;28;20323;-84
2022/01/29 06:33:15;;;;;;;;;;;;;;;14.04;65.15;102505.69;5092949;28;20027;-86
2022/01/29 06:35:41;;;;;;;;;;;;;;;14.49;62.99;102507.69;5092533;28;20377;-86
2022/01/29 06:38:07;;;;;;;;;;;;;;;14.80;63.79;102507.44;5092326;28;19970;-86
2022/01/29 06:40:33;;;;;;;;;;;;;;;15.80;58.29;102499.78;5092212;28;19963;-85
2022/01/29 06:42:58;;;;;;;;;;;;;;;13.64;65.27;102508.88;5092518;28;20373;-85
2022/01/29 06:45:23;;;;;;;;;;;;;;;14.23;65.41;102492.31;5092500;28;20250;-85
2022/01/29 06:47:49;;;;;;;;;;;;;;;14.52;63.76;102486.69;5092167;28;20342;-84
2022/01/29 06:50:22;;;;;;;;;;;;;;;14.75;63.73;102482.22;5093817;28;19928;-89
2022/01/29 06:52:47;;;;;;;;;;;;;;;14.70;62.39;102484.22;5094207;28;20378;-88
2022/01/29 06:55:12;;;;;;;;;;;;;;;14.20;65.62;102484.28;5097956;28;19922;-89
2022/01/29 06:57:37;;;;;;;;;;;;;;;14.82;62.32;102483.75;5099026;28;19970;-87
2022/01/29 07:00:03;;;;;;;;;;;;;;;14.53;64.24;102487.56;5098841;28;19916;-88
2022/01/29 07:02:28;;;;;;;;;;;;;;;14.36;64.98;102491.81;5097417;28;19916;-88
2022/01/29 07:04:53;;;;;;;;;;;;;;;14.26;64.53;102484.94;5097839;28;19916;-88
2022/01/29 07:07:19;;;;;;;;;;;;;;;13.77;67.48;102489.44;5097805;28;20399;-88
2022/01/29 07:09:44;;;;;;;;;;;;;;;14.54;63.91;102473.03;5097933;28;19917;-88
2022/01/29 07:12:10;;;;;;;;;;;;;;;13.98;67.18;102479.63;5098563;28;19912;-88
2022/01/29 07:14:39;;;;;;;;;;;;;;;14.97;61.63;102481.38;5098338;28;19916;-88
2022/01/29 07:17:06;;;;;;;;;;;;;;;14.63;65.67;102478.13;5097959;28;20035;-88
2022/01/29 07:19:32;;;;;;;;;;;;;;;15.05;64.18;102477.41;5098699;28;19968;-88
2022/01/29 07:21:57;;;;;;;;;;;;;;;14.56;64.95;102482.00;5099881;28;20015;-88
2022/01/29 07:24:22;;;;;;;;;;;;;;;14.03;67.64;102466.72;5102350;28;19979;-89
2022/01/29 07:26:47;;;;;;;;;;;;;;;13.58;68.64;102475.56;5103422;28;19916;-88
2022/01/29 07:29:12;;;;;;;;;;;;;;;14.47;65.42;102472.34;5104793;28;19916;-87
2022/01/29 07:31:39;;;;;;;;;;;;;;;14.42;67.43;102466.19;5102540;28;19916;-88
2022/01/29 07:34:04;;;;;;;;;;;;;;;14.52;67.23;102464.00;5103371;28;19916;-88
2022/01/29 07:36:29;;;;;;;;;;;;;;;14.03;67.08;102460.41;5097195;28;19912;-88
2022/01/29 07:38:54;;;;;;;;;;;;;;;14.61;67.32;102457.34;5099445;28;19916;-88
2022/01/29 07:41:19;;;;;;;;;;;;;;;14.33;67.73;102450.22;5097100;28;19916;-88
2022/01/29 07:43:45;;;;;;;;;;;;;;;13.93;69.28;102459.84;5097014;28;19916;-88
2022/01/29 07:46:10;;;;;;;;;;;;;;;13.94;68.21;102461.63;5101458;28;20353;-88
2022/01/29 07:48:35;;;;;;;;;;;;;;;14.17;67.07;102453.47;5097820;28;20277;-89
2022/01/29 07:51:00;;;;;;;;;;;;;;;13.99;66.66;102446.91;5096470;28;19923;-89
2022/01/29 07:53:25;;;;;;;;;;;;;;;15.60;61.64;102438.72;5097245;28;20381;-89
2022/01/29 07:55:51;;;;;;;;;;;;;;;15.00;63.72;102443.09;5096156;28;20381;-90
2022/01/29 07:58:16;;;;;;;;;;;;;;;14.84;63.15;102432.81;5096290;28;19920;-89
2022/01/29 08:00:41;;;;;;;;;;;;;;;15.36;61.35;102424.31;5096944;28;19923;-90
2022/01/29 08:03:07;;;;;;;;;;;;;;;14.80;64.44;102431.16;5096733;28;19995;-93
2022/01/29 08:05:34;;;;;;;;;;;;;;;13.82;69.77;102428.44;5096383;28;19916;-91
2022/01/29 08:07:59;;;;;;;;;;;;;;;14.84;64.89;102437.34;5097896;28;20022;-91
2022/01/29 08:10:24;;;;;;;;;;;;;;;14.53;64.79;102433.97;5097376;28;20281;-90
2022/01/29 08:12:50;;;;;;;;;;;;;;;14.02;67.56;102417.81;5096391;28;19916;-92
2022/01/29 08:15:15;;;;;;;;;;;;;;;14.59;65.95;102421.97;5096430;28;19912;-90
2022/01/29 08:17:40;;;;;;;;;;;;;;;14.34;65.97;102412.03;5097765;28;20442;-89
2022/01/29 08:20:08;;;;;;;;;;;;;;;15.01;63.35;102407.59;5098602;28;19916;-90
2022/01/29 08:22:39;;;;;;;;;;;;;;;14.38;66.04;102418.25;5096387;28;19925;-93
2022/01/29 08:25:05;;;;;;;;;;;;;;;14.67;64.58;102408.06;5095524;28;19923;-88
2022/01/29 08:27:30;;;;;;;;;;;;;;;15.04;64.00;102417.50;5095473;28;20002;-88
2022/01/29 08:29:55;;;;;;;;;;;;;;;14.18;67.02;102417.16;5095571;28;19916;-89
2022/01/29 08:32:20;;;;;;;;;;;;;;;14.93;64.57;102417.03;5095404;28;20011;-90
2022/01/29 08:34:47;;;;;;;;;;;;;;;14.41;64.61;102422.69;5095707;28;19916;-90
2022/01/29 08:37:12;;;;;;;;;;;;;;;14.14;68.08;102414.63;5095695;28;19916;-90
2022/01/29 08:39:38;;;;;;;;;;;;;;;14.03;66.52;102412.31;5095804;28;20026;-90
2022/01/29 08:42:03;;;;;;;;;;;;;;;14.43;66.50;102416.25;5095867;28;19916;-90
2022/01/29 08:44:28;;;;;;;;;;;;;;;14.19;67.60;102418.03;5095284;28;19916;-90
2022/01/29 08:46:54;;;;;;;;;;;;;;;14.16;67.11;102405.47;5095217;28;20379;-94
2022/01/29 08:49:19;;;;;;;;;;;;;;;14.06;67.35;102404.03;5095214;28;20019;-85
2022/01/29 08:51:44;;;;;;;;;;;;;;;14.83;63.43;102394.72;5094726;28;20010;-88
2022/01/29 08:54:09;;;;;;;;;;;;;;;14.66;65.07;102401.75;5094939;28;20014;-87
2022/01/29 08:56:35;;;;;;;;;;;;;;;14.85;64.11;102395.56;5094809;28;20014;-88
2022/01/29 08:59:00;;;;;;;;;;;;;;;14.71;63.82;102390.66;5094947;28;19963;-88
2022/01/29 09:01:25;;;;;;;;;;;;;;;14.49;65.88;102380.59;5095126;28;19951;-89
2022/01/29 09:03:51;;;;;;;;;;;;;;;13.94;67.42;102388.16;5094068;28;19927;-84
2022/01/29 09:06:16;;;;;;;;;;;;;;;13.70;68.05;102377.22;5093135;28;20517;-83
2022/01/29 09:08:45;;;;;;;;;;;;;;;14.96;64.56;102365.13;5093141;28;20294;-84
2022/01/29 09:11:11;;;;;;;;;;;;;;;14.95;63.40;102364.25;5093696;28;19923;-87
2022/01/29 09:13:36;;;;;;;;;;;;;;;14.79;63.13;102369.44;5094436;28;19916;-85
2022/01/29 09:16:01;;;;;;;;;;;;;;;14.62;64.94;102378.31;5093082;28;19923;-86
2022/01/29 09:18:27;;;;;;;;;;;;;;;14.48;64.46;102389.72;5093543;28;19916;-85
2022/01/29 09:20:52;;;;;;;;;;;;;;;15.56;61.53;102377.06;5093830;28;20026;-85
2022/01/29 09:23:17;;;;;;;;;;;;;;;14.84;62.25;102375.59;5093887;28;19920;-85
2022/01/29 09:25:43;;;;;;;;;;;;;;;14.50;63.93;102376.91;5093939;28;19916;-87
2022/01/29 09:28:12;;;;;;;;;;;;;;;15.11;61.77;102369.06;5093890;28;19962;-86
2022/01/29 09:30:38;;;;;;;;;;;;;;;14.73;63.05;102372.41;5093819;28;19923;-84
2022/01/29 09:33:03;;;;;;;;;;;;;;;14.44;63.29;102354.50;5093502;28;19916;-85
2022/01/29 09:35:29;;;;;;;;;;;;;;;14.71;64.61;102366.16;5094437;28;19916;-85
2022/01/29 09:37:54;;;;;;;;;;;;;;;15.14;61.59;102364.38;5094878;28;19916;-84
2022/01/29 09:40:20;;;;;;;;;;;;;;;14.44;65.66;102351.78;5094293;28;20007;-85
2022/01/29 09:42:46;;;;;;;;;;;;;;;15.03;63.70;102342.13;5093002;28;20362;-85
2022/01/29 09:45:13;;;;;;;;;;;;;;;15.59;60.96;102341.50;5093016;28;20401;-84
2022/01/29 09:47:40;;;;;;;;;;;;;;;15.28;61.64;102339.25;5093065;28;19958;-86
2022/01/29 09:50:06;;;;;;;;;;;;;;;15.66;59.80;102342.09;5093363;28;19920;-84
2022/01/29 09:52:31;;;;;;;;;;;;;;;15.33;61.37;102330.84;5093064;28;19954;-88
2022/01/29 09:54:57;;;;;;;;;;;;;;;14.91;61.31;102327.16;5093087;28;19916;-84
2022/01/29 09:57:22;;;;;;;;;;;;;;;14.79;62.82;102314.06;5092545;28;20297;-83
2022/01/29 09:59:50;;;;;;;;;;;;;;;15.21;60.63;102308.59;5093554;28;19923;-84
2022/01/29 10:02:16;;;;;;;;;;;;;;;15.29;59.73;102321.03;5092635;28;20378;-85
2022/01/29 10:04:45;;;;;;;;;;;;;;;15.42;60.11;102314.06;5092321;28;19958;-84
2022/01/29 10:07:14;;;;;;;;;;;;;;;15.13;60.32;102304.47;5092245;28;20007;-84
2022/01/29 10:09:40;;;;;;;;;;;;;;;15.88;58.80;102322.94;5092101;28;19924;-83
2022/01/29 10:12:34;;;;;;;;;;;;;;;15.26;59.48;102316.59;5092498;28;19915;-85
2022/01/29 10:15:01;;;;;;;;;;;;;;;15.00;60.77;102325.91;5079184;28;19952;-84
2022/01/29 10:17:44;;;;;;;;;;;;;;;15.60;59.65;102336.91;5092319;28;19916;-84
2022/01/29 10:20:15;;;;;;;;;;;;;;;15.38;59.11;102328.78;5092000;28;19920;-84
2022/01/29 10:22:41;;;;;;;;;;;;;;;15.52;59.33;102315.44;5091924;28;20003;-83
2022/01/29 10:25:09;;;;;;;;;;;;;;;15.51;57.88;102324.56;5091382;28;19997;-83
2022/01/29 10:27:35;;;;;;;;;;;;;;;15.64;58.26;102341.28;5091210;28;20438;-83
2022/01/29 10:30:00;;;;;;;;;;;;;;;15.80;58.37;102336.03;5093107;28;19916;-86
2022/01/29 10:32:26;;;;;;;;;;;;;;;15.68;58.96;102331.13;5092197;28;19912;-83
2022/01/29 10:34:55;;;;;;;;;;;;;;;15.60;58.16;102312.38;5092065;28;19919;-87
2022/01/29 10:37:20;;;;;;;;;;;;;;;15.16;59.71;102307.06;5094506;28;19998;-89
2022/01/29 10:39:54;;;;;;;;;;;;;;;15.49;59.35;102315.59;5096054;28;19920;-87
2022/01/29 10:42:20;;;;;;;;;;;;;;;15.43;58.53;102304.94;5094814;28;19959;-85
2022/01/29 10:44:46;;;;;;;;;;;;;;;15.72;57.36;102300.00;5098131;28;19923;-84
2022/01/29 10:47:12;;;;;;;;;;;;;;;15.24;59.43;102315.78;5096262;28;20442;-84
2022/01/29 10:49:44;;;;;;;;;;;;;;;15.28;58.74;102306.53;5092698;28;20007;-83
2022/01/29 10:52:11;;;;;;;;;;;;;;;15.79;58.55;102306.97;5091996;28;20375;-88
2022/01/29 10:54:37;;;;;;;;;;;;;;;16.08;57.53;102315.66;5092653;28;19916;-86
2022/01/29 10:57:04;;;;;;;;;;;;;;;15.67;58.69;102311.13;5092459;28;19968;-86
2022/01/29 10:59:33;;;;;;;;;;;;;;;15.69;58.32;102289.25;5091758;28;19973;-86
2022/01/29 11:02:02;;;;;;;;;;;;;;;15.44;59.43;102273.09;5092017;28;19917;-85
2022/01/29 11:04:29;;;;;;;;;;;;;;;15.73;59.47;102263.56;5093753;28;19979;-86
2022/01/29 11:06:56;;;;;;;;;;;;;;;15.27;59.58;102255.66;5093428;28;20010;-87
2022/01/29 11:09:22;;;;;;;;;;;;;;;15.38;60.04;102246.97;5091531;28;19965;-85
2022/01/29 11:11:47;;;;;;;;;;;;;;;15.91;58.26;102251.84;5089905;28;19916;-86
2022/01/29 11:14:15;;;;;;;;;;;;;;;15.06;60.73;102262.94;5090406;28;19960;-84
2022/01/29 11:16:45;;;;;;;;;;;;;;;15.14;60.04;102258.06;5091866;28;20385;-85
2022/01/29 11:19:11;;;;;;;;;;;;;;;15.15;60.64;102268.00;5093254;28;19916;-86
2022/01/29 11:21:37;;;;;;;;;;;;;;;14.74;62.81;102275.25;5092956;28;19923;-84
2022/01/29 11:24:04;;;;;;;;;;;;;;;15.48;58.58;102264.72;5093432;28;19924;-84
2022/01/29 11:26:30;;;;;;;;;;;;;;;15.77;57.60;102263.38;5098049;28;19949;-85
2022/01/29 11:29:14;;;;;;;;;;;;;;;15.75;58.47;102248.03;5108958;28;19920;-85
2022/01/29 11:31:39;;;;;;;;;;;;;;;15.14;60.20;102254.44;5109135;28;19912;-85
2022/01/29 11:34:07;;;;;;;;;;;;;;;15.17;61.07;102243.38;5108458;28;19920;-85
2022/01/29 11:36:48;;;;;;;;;;;;;;;15.71;58.32;102249.13;5107073;28;19912;-86
2022/01/29 11:39:24;;;;;;;;;;;;;;;14.87;61.47;102232.88;5107843;28;20361;-85
2022/01/29 11:42:08;;;;;;;;;;;;;;;15.55;59.16;102236.19;5113631;28;19970;-84
2022/01/29 11:44:34;;;;;;;;;;;;;;;15.83;58.75;102244.97;5112353;28;20194;-85
2022/01/29 11:47:19;;;;;;;;;;;;;;;14.96;59.26;102245.22;5112390;28;19950;-85
2022/01/29 11:49:44;;;;;;;;;;;;;;;14.66;60.79;102241.03;5113179;28;19915;-85
2022/01/29 11:52:23;;;;;;;;;;;;;;;16.10;57.30;102234.56;5113612;28;19931;-85
2022/01/29 11:55:17;;;;;;;;;;;;;;;15.85;58.06;102235.75;5113913;28;19931;-85
2022/01/29 11:58:01;;;;;;;;;;;;;;;16.03;57.21;102235.81;5101049;28;19920;-85
2022/01/29 12:00:34;;;;;;;;;;;;;;;15.40;58.09;102217.81;5114971;28;19916;-85
2022/01/29 12:02:59;;;;;;;;;;;;;;;15.84;56.66;102214.88;5114814;28;19994;-85
2022/01/29 12:05:29;;;;;;;;;;;;;;;17.28;53.14;102191.22;5116302;28;20404;-85
2022/01/29 12:08:21;;;;;;;;;;;;;;;15.75;57.64;102216.16;5115091;28;20338;-85
2022/01/29 12:10:54;;;;;;;;;;;;;;;15.51;58.86;102207.28;5111792;28;19938;-85
2022/01/29 12:13:20;;;;;;;;;;;;;;;15.80;57.40;102183.22;5114831;28;20381;-85
2022/01/29 12:15:45;;;;;;;;;;;;;;;16.37;56.40;102190.47;5116076;28;19915;-85
2022/01/29 12:18:24;;;;;;;;;;;;;;;15.57;58.56;102201.53;5115771;28;19927;-85
2022/01/29 12:20:50;;;;;;;;;;;;;;;16.10;55.64;102196.34;5114546;28;19923;-85
2022/01/29 12:23:15;;;;;;;;;;;;;;;15.83;57.64;102187.66;5114568;28;19924;-84
2022/01/29 12:25:41;;;;;;;;;;;;;;;16.42;55.81;102174.72;5115768;28;19919;-85
2022/01/29 12:28:07;;;;;;;;;;;;;;;15.54;57.18;102179.88;5114405;28;19916;-85
2022/01/29 12:30:37;;;;;;;;;;;;;;;15.56;57.84;102171.63;5114256;28;20277;-84
2022/01/29 12:33:04;;;;;;;;;;;;;;;16.56;54.69;102191.31;5114345;28;20074;-84
2022/01/29 12:35:37;;;;;;;;;;;;;;;16.32;54.93;102190.72;5114307;28;19994;-84
2022/01/29 12:38:03;;;;;;;;;;;;;;;16.58;55.37;102185.75;5114441;28;19916;-84
2022/01/29 12:40:35;;;;;;;;;;;;;;;17.13;53.49;102199.25;5114157;28;19923;-85
2022/01/29 12:43:10;;;;;;;;;;;;;;;16.66;55.60;102202.63;5114387;28;19915;-85